createdAt,value
2023-04-01T00:00:15.313Z,4.80
2023-04-01T00:02:43.105Z,7.25
2023-04-01T00:05:11.540Z,5.15
2023-04-01T00:07:40.383Z,3.45
2023-04-01T00:10:09.680Z,3.50
2023-04-01T00:12:38.930Z,5.03
2023-04-01T00:15:09.046Z,6.30
2023-04-01T00:17:36.688Z,6.53
2023-04-01T00:20:05.620Z,5.60
2023-04-01T00:22:33.629Z,5.07
2023-04-01T00:25:01.459Z,4.40
2023-04-01T00:27:29.027Z,3.30
2023-04-01T00:29:57.024Z,4.10
2023-04-01T00:32:24.664Z,4.30
2023-04-01T00:34:52.888Z,3.63
2023-04-01T00:37:22.033Z,4.38
2023-04-01T00:39:50.021Z,3.55
2023-04-01T00:42:17.730Z,3.63
2023-04-01T00:44:53.864Z,3.72
2023-04-01T00:47:23.521Z,4.03
2023-04-01T00:49:55.020Z,4.05
2023-04-01T00:52:25.802Z,4.00
2023-04-01T00:55:00.138Z,3.65
2023-04-01T00:57:38.605Z,3.55
2023-04-01T01:00:10.461Z,4.35
2023-04-01T01:02:39.342Z,4.60
2023-04-01T01:05:07.335Z,4.50
2023-04-01T01:07:53.822Z,3.75
2023-04-01T01:10:31.034Z,4.28
2023-04-01T01:13:23.507Z,4.30
2023-04-01T01:15:58.940Z,5.13
2023-04-01T01:18:45.072Z,5.47
2023-04-01T01:21:31.449Z,3.75
2023-04-01T01:24:03.583Z,4.32
2023-04-01T01:26:37.210Z,4.60
2023-04-01T01:29:30.373Z,4.67
2023-04-01T01:32:05.450Z,4.93
2023-04-01T01:34:32.941Z,5.13
2023-04-01T01:37:07.131Z,4.25
2023-04-01T01:39:36.332Z,4.20
2023-04-01T01:42:07.464Z,4.72
2023-04-01T01:44:38.199Z,4.45
2023-04-01T01:47:06.651Z,4.22
2023-04-01T01:49:36.853Z,4.20
2023-04-01T01:52:04.847Z,4.10
2023-04-01T01:54:32.366Z,4.25
2023-04-01T01:57:09.743Z,4.38
2023-04-01T01:59:41.830Z,4.55
2023-04-01T02:02:11.986Z,6.05
2023-04-01T02:04:43.156Z,5.85
2023-04-01T02:07:27.404Z,5.65
2023-04-01T02:09:55.381Z,36.85
2023-04-01T02:12:24.924Z,57.75
2023-04-01T02:15:02.180Z,98.22
2023-04-01T02:17:33.074Z,53.53
2023-04-01T02:20:09.863Z,14.45
2023-04-01T02:22:46.330Z,7.22
2023-04-01T02:25:17.168Z,4.50
2023-04-01T02:27:46.630Z,5.05
2023-04-01T02:30:17.021Z,5.78
2023-04-01T02:32:46.116Z,4.82
2023-04-01T02:35:16.482Z,4.63
2023-04-01T02:37:46.425Z,4.65
2023-04-01T02:40:16.108Z,4.45
2023-04-01T02:42:44.482Z,4.65
2023-04-01T02:45:13.197Z,4.78
2023-04-01T02:47:41.073Z,5.00
2023-04-01T02:50:10.212Z,5.72
2023-04-01T02:52:37.947Z,5.50
2023-04-01T02:55:07.145Z,5.53
2023-04-01T02:57:34.814Z,5.50
2023-04-01T03:00:03.787Z,6.20
2023-04-01T03:02:32.015Z,4.95
2023-04-01T03:04:59.745Z,5.40
2023-04-01T03:07:27.321Z,5.18
2023-04-01T03:09:54.986Z,5.20
2023-04-01T03:12:23.302Z,4.07
2023-04-01T03:14:52.835Z,4.45
2023-04-01T03:17:20.703Z,5.10
2023-04-01T03:19:48.381Z,4.00
2023-04-01T03:22:16.391Z,24.50
2023-04-01T03:24:44.407Z,28.67
2023-04-01T03:27:13.244Z,20.80
2023-04-01T03:29:42.375Z,9.20
2023-04-01T03:32:10.522Z,9.07
2023-04-01T03:34:38.126Z,7.85
2023-04-01T03:37:06.520Z,6.10
2023-04-01T03:39:34.246Z,18.10
2023-04-01T03:42:02.329Z,9.73
2023-04-01T03:44:33.876Z,4.72
2023-04-01T03:47:02.284Z,5.10
2023-04-01T03:49:30.409Z,15.60
2023-04-01T03:51:58.089Z,10.00
2023-04-01T03:54:25.835Z,11.05
2023-04-01T03:56:53.630Z,11.75
2023-04-01T03:59:21.251Z,41.78
2023-04-01T04:01:49.849Z,27.77
2023-04-01T04:04:17.482Z,32.10
2023-04-01T04:06:45.184Z,30.92
2023-04-01T04:09:13.249Z,16.27
2023-04-01T04:11:40.908Z,8.02
2023-04-01T04:14:08.590Z,8.27
2023-04-01T04:16:37.666Z,5.28
2023-04-01T04:19:06.123Z,7.18
2023-04-01T04:21:33.926Z,65.25
2023-04-01T04:24:02.038Z,43.85
2023-04-01T04:26:38.027Z,31.40
2023-04-01T04:29:05.727Z,13.35
2023-04-01T04:31:33.442Z,13.63
2023-04-01T04:34:02.405Z,47.90
2023-04-01T04:36:33.459Z,15.10
2023-04-01T04:39:04.126Z,4.70
2023-04-01T04:41:34.858Z,6.53
2023-04-01T04:44:04.837Z,10.40
2023-04-01T04:46:33.537Z,17.88
2023-04-01T04:49:11.108Z,16.65
2023-04-01T04:51:39.166Z,21.80
2023-04-01T04:54:09.948Z,49.75
2023-04-01T04:56:54.055Z,30.15
2023-04-01T04:59:23.009Z,16.30
2023-04-01T05:01:58.559Z,5.07
2023-04-01T05:04:26.462Z,41.88
2023-04-01T05:06:54.266Z,27.33
2023-04-01T05:09:22.425Z,95.47
2023-04-01T05:11:50.367Z,31.48
2023-04-01T05:14:18.145Z,21.08
2023-04-01T05:16:55.636Z,14.52
2023-04-01T05:19:23.413Z,4.85
2023-04-01T05:21:51.407Z,4.28
2023-04-01T05:24:19.021Z,3.60
2023-04-01T05:26:47.470Z,3.97
2023-04-01T05:29:15.104Z,20.25
2023-04-01T05:31:44.077Z,11.77
2023-04-01T05:34:11.865Z,16.70
2023-04-01T05:36:39.920Z,14.02
2023-04-01T05:39:07.748Z,19.48
2023-04-01T05:41:39.792Z,10.77
2023-04-01T05:44:07.507Z,8.43
2023-04-01T05:46:40.874Z,7.30
2023-04-01T05:49:23.258Z,7.40
2023-04-01T05:51:52.424Z,5.55
2023-04-01T05:54:20.873Z,5.60
2023-04-01T05:56:48.929Z,5.70
2023-04-01T05:59:17.023Z,4.50
2023-04-01T06:01:44.811Z,4.40
2023-04-01T06:04:18.604Z,4.72
2023-04-01T06:09:19.594Z,3.50
2023-04-01T06:12:14.564Z,2.88
2023-04-01T06:15:21.383Z,2.80
2023-04-01T06:18:12.431Z,2.40
2023-04-01T06:20:48.832Z,2.40
2023-04-01T06:23:38.634Z,2.10
2023-04-01T06:26:12.744Z,2.22
2023-04-01T06:28:50.112Z,2.20
2023-04-01T06:31:36.341Z,1.98
2023-04-01T06:34:07.653Z,1.80
2023-04-01T06:37:14.118Z,2.10
2023-04-01T06:40:07.905Z,2.25
2023-04-01T06:42:43.323Z,2.08
2023-04-01T06:45:45.382Z,2.28
2023-04-01T06:48:32.490Z,1.83
2023-04-01T06:51:36.942Z,2.20
2023-04-01T06:54:32.561Z,2.20
2023-04-01T06:57:35.597Z,2.15
2023-04-01T07:00:13.849Z,2.08
2023-04-01T07:02:54.724Z,1.98
2023-04-01T07:05:24.315Z,2.40
2023-04-01T07:07:58.532Z,2.15
2023-04-01T07:10:51.370Z,2.13
2023-04-01T07:13:47.546Z,2.08
2023-04-01T07:16:27.938Z,2.10
2023-04-01T07:19:04.080Z,2.08
2023-04-01T07:21:50.444Z,2.60
2023-04-01T07:24:29.093Z,2.28
2023-04-01T07:27:13.924Z,2.17
2023-04-01T07:29:43.031Z,2.08
2023-04-01T07:32:28.278Z,2.63
2023-04-01T07:35:22.455Z,2.05
2023-04-01T07:38:11.827Z,1.70
2023-04-01T07:41:10.810Z,1.90
2023-04-01T07:43:52.908Z,1.88
2023-04-01T07:46:44.848Z,2.00
2023-04-01T07:49:41.920Z,1.75
2023-04-01T07:52:16.709Z,1.95
2023-04-01T07:55:54.327Z,1.90
2023-04-01T07:58:37.154Z,1.77
2023-04-01T08:01:38.759Z,1.75
2023-04-01T08:04:38.384Z,1.60
2023-04-01T08:07:17.143Z,1.77
2023-04-01T08:10:16.483Z,1.60
2023-04-01T08:13:19.105Z,2.20
2023-04-01T08:16:28.926Z,1.90
2023-04-01T08:19:34.012Z,1.85
2023-04-01T08:22:10.928Z,2.03
2023-04-01T08:24:47.515Z,2.88
2023-04-01T08:27:45.167Z,1.98
2023-04-01T08:30:21.086Z,2.10
2023-04-01T08:32:56.984Z,2.25
2023-04-01T08:35:44.543Z,2.58
2023-04-01T08:38:19.313Z,2.10
2023-04-01T08:41:13.024Z,2.33
2023-04-01T08:44:34.647Z,2.47
2023-04-01T08:47:35.353Z,3.38
2023-04-01T08:50:27.654Z,2.40
2023-04-01T08:53:32.153Z,2.70
2023-04-01T08:56:21.704Z,1.80
2023-04-01T08:59:10.675Z,3.20
2023-04-01T09:02:14.081Z,1.98
2023-04-01T09:05:03.712Z,1.90
2023-04-01T09:07:53.183Z,2.20
2023-04-01T09:10:48.404Z,1.85
2023-04-01T09:14:01.248Z,2.35
2023-04-01T09:16:51.086Z,2.10
2023-04-01T09:19:26.703Z,4.00
2023-04-01T09:22:36.649Z,2.67
2023-04-01T09:25:17.327Z,3.88
2023-04-01T09:27:57.413Z,3.38
2023-04-01T09:31:03.147Z,3.95
2023-04-01T09:33:58.642Z,2.38
2023-04-01T09:37:10.434Z,2.30
2023-04-01T09:39:48.483Z,2.10
2023-04-01T09:43:02.444Z,2.63
2023-04-01T09:45:44.244Z,6.07
2023-04-01T09:48:42.236Z,3.05
2023-04-01T09:51:38.530Z,6.45
2023-04-01T09:54:28.733Z,7.47
2023-04-01T09:57:24.538Z,2.28
2023-04-01T10:00:32.001Z,6.80
2023-04-01T10:03:27.740Z,2.63
2023-04-01T10:06:18.853Z,5.32
2023-04-01T10:09:19.530Z,5.70
2023-04-01T10:11:53.646Z,3.65
2023-04-01T10:14:25.131Z,2.15
2023-04-01T10:17:19.918Z,6.88
2023-04-01T10:20:06.929Z,3.63
2023-04-01T10:22:45.506Z,7.65
2023-04-01T10:25:13.021Z,2.72
2023-04-01T10:27:59.519Z,2.65
2023-04-01T10:31:16.792Z,9.73
2023-04-01T10:33:47.617Z,3.33
2023-04-01T10:36:35.698Z,2.40
2023-04-01T10:39:22.404Z,2.08
2023-04-01T10:42:12.204Z,3.55
2023-04-01T10:45:30.382Z,2.15
2023-04-01T10:48:21.383Z,2.38
2023-04-01T10:51:24.067Z,2.42
2023-04-01T10:54:16.937Z,2.88
2023-04-01T10:57:10.715Z,1.90
2023-04-01T11:00:08.369Z,2.78
2023-04-01T11:03:04.194Z,2.92
2023-04-01T11:06:34.328Z,1.65
2023-04-01T11:09:39.120Z,1.90
2023-04-01T11:15:09.022Z,3.95
2023-04-01T11:17:39.603Z,8.23
2023-04-01T11:20:27.052Z,8.40
2023-04-01T11:23:16.351Z,1.90
2023-04-01T11:25:46.887Z,1.60
2023-04-01T11:29:18.931Z,1.73
2023-04-01T11:32:16.722Z,1.77
2023-04-01T11:35:10.837Z,1.92
2023-04-01T11:37:59.843Z,1.77
2023-04-01T11:41:19.903Z,4.03
2023-04-01T11:44:19.469Z,3.53
2023-04-01T11:47:35.491Z,3.78
2023-04-01T11:50:26.692Z,1.98
2023-04-01T11:53:32.713Z,1.55
2023-04-01T11:56:09.031Z,3.85
2023-04-01T11:58:58.727Z,1.70
2023-04-01T12:01:34.193Z,2.03
2023-04-01T12:04:31.881Z,1.60
2023-04-01T12:06:59.518Z,4.45
2023-04-01T12:09:48.822Z,1.52
2023-04-01T12:12:25.036Z,4.95
2023-04-01T12:15:09.133Z,3.92
2023-04-01T12:18:24.481Z,1.80
2023-04-01T12:23:38.489Z,4.20
2023-04-01T12:26:47.610Z,2.20
2023-04-01T12:29:49.407Z,1.73
2023-04-01T12:32:21.591Z,2.75
2023-04-01T12:34:59.283Z,3.00
2023-04-01T12:37:32.681Z,4.97
2023-04-01T12:40:03.151Z,2.00
2023-04-01T12:43:12.547Z,3.42
2023-04-01T12:45:58.201Z,2.55
2023-04-01T12:48:41.645Z,2.60
2023-04-01T12:51:18.788Z,2.00
2023-04-01T12:54:23.303Z,2.50
2023-04-01T12:57:18.970Z,1.80
2023-04-01T13:00:12.396Z,1.75
2023-04-01T13:02:47.467Z,1.58
2023-04-01T13:05:33.473Z,1.85
2023-04-01T13:08:17.716Z,1.92
2023-04-01T13:10:48.099Z,2.17
2023-04-01T13:13:42.827Z,2.00
2023-04-01T13:16:16.611Z,1.65
2023-04-01T13:18:56.876Z,1.48
2023-04-01T13:21:52.606Z,1.60
2023-04-01T13:24:25.796Z,1.60
2023-04-01T13:27:10.338Z,1.77
2023-04-01T13:30:09.044Z,2.35
2023-04-01T13:33:02.644Z,2.10
2023-04-01T13:35:50.670Z,2.00
2023-04-01T13:38:38.134Z,2.03
2023-04-01T13:41:24.824Z,1.63
2023-04-01T13:44:17.917Z,2.17
2023-04-01T13:47:02.746Z,1.95
2023-04-01T13:49:48.497Z,1.83
2023-04-01T13:52:16.243Z,1.67
2023-04-01T13:55:01.750Z,1.98
2023-04-01T13:57:49.263Z,2.10
2023-04-01T14:00:41.851Z,2.10
2023-04-01T14:03:38.073Z,1.80
2023-04-01T14:06:30.712Z,1.95
2023-04-01T14:09:07.432Z,2.90
2023-04-01T14:11:59.862Z,1.58
2023-04-01T14:14:41.628Z,1.80
2023-04-01T14:17:12.165Z,1.80
2023-04-01T14:19:39.727Z,1.65
2023-04-01T14:22:35.274Z,1.90
2023-04-01T14:25:25.702Z,1.63
2023-04-01T14:28:02.594Z,1.60
2023-04-01T14:30:52.201Z,1.63
2023-04-01T14:33:48.918Z,1.55
2023-04-01T14:36:36.381Z,1.60
2023-04-01T14:39:41.624Z,1.73
2023-04-01T14:42:42.935Z,1.80
2023-04-01T14:45:21.758Z,1.55
2023-04-01T14:48:00.966Z,1.50
2023-04-01T14:50:41.455Z,1.80
2023-04-01T14:53:08.982Z,1.92
2023-04-01T14:56:00.490Z,1.88
2023-04-01T14:58:45.776Z,2.53
2023-04-01T15:01:16.567Z,2.03
2023-04-01T15:04:06.811Z,2.47
2023-04-01T15:06:46.651Z,1.95
2023-04-01T15:09:34.209Z,1.65
2023-04-01T15:12:32.523Z,1.90
2023-04-01T15:15:03.379Z,1.90
2023-04-01T15:17:31.046Z,1.70
2023-04-01T15:20:08.432Z,1.90
2023-04-01T15:22:50.876Z,2.08
2023-04-01T15:25:48.938Z,0.98
2023-04-01T15:28:32.070Z,1.10
2023-04-01T15:31:09.445Z,1.20
2023-04-01T15:34:02.034Z,1.10
2023-04-01T15:36:52.441Z,1.40
2023-04-01T15:40:01.412Z,1.13
2023-04-01T15:42:42.291Z,1.30
2023-04-01T15:45:35.942Z,1.15
2023-04-01T15:48:47.119Z,1.40
2023-04-01T15:51:50.513Z,1.73
2023-04-01T15:54:27.185Z,1.63
2023-04-01T15:57:21.394Z,2.10
2023-04-01T16:00:18.614Z,2.60
2023-04-01T16:03:07.816Z,1.83
2023-04-01T16:05:57.030Z,3.17
2023-04-01T16:08:30.421Z,1.67
2023-04-01T16:11:15.916Z,1.60
2023-04-01T16:14:22.425Z,1.30
2023-04-01T16:17:29.246Z,1.55
2023-04-01T16:20:16.305Z,2.78
2023-04-01T16:23:01.128Z,2.35
2023-04-01T16:25:41.263Z,1.02
2023-04-01T16:28:21.543Z,1.40
2023-04-01T16:31:00.339Z,1.60
2023-04-01T16:33:37.299Z,1.40
2023-04-01T16:36:23.503Z,1.80
2023-04-01T16:39:26.290Z,1.80
2023-04-01T16:42:32.181Z,1.73
2023-04-01T16:45:08.918Z,1.65
2023-04-01T16:47:42.542Z,1.35
2023-04-01T16:50:32.745Z,1.85
2023-04-01T16:53:19.149Z,1.80
2023-04-01T16:55:57.896Z,2.10
2023-04-01T16:58:29.544Z,1.95
2023-04-01T17:01:11.576Z,10.65
2023-04-01T17:03:47.057Z,6.85
2023-04-01T17:06:34.935Z,5.90
2023-04-01T17:09:21.513Z,4.15
2023-04-01T17:12:11.360Z,3.10
2023-04-01T17:15:12.980Z,2.92
2023-04-01T17:17:58.806Z,10.45
2023-04-01T17:20:26.423Z,13.65
2023-04-01T17:23:03.284Z,20.40
2023-04-01T17:25:47.453Z,37.00
2023-04-01T17:28:42.302Z,23.00
2023-04-01T17:31:24.329Z,9.13
2023-04-01T17:34:23.199Z,3.60
2023-04-01T17:37:04.715Z,1.70
2023-04-01T17:39:47.823Z,2.00
2023-04-01T17:42:21.167Z,2.40
2023-04-01T17:45:05.506Z,1.40
2023-04-01T17:48:02.225Z,1.38
2023-04-01T17:50:53.046Z,1.60
2023-04-01T17:53:40.483Z,1.60
2023-04-01T17:56:31.908Z,1.88
2023-04-01T17:59:16.976Z,1.92
2023-04-01T18:01:57.272Z,3.20
2023-04-01T18:05:06.209Z,14.43
2023-04-01T18:07:44.877Z,19.27
2023-04-01T18:10:26.667Z,27.67
2023-04-01T18:13:28.210Z,11.48
2023-04-01T18:16:29.856Z,2.80
2023-04-01T18:19:04.046Z,2.72
2023-04-01T18:21:58.427Z,4.10
2023-04-01T18:24:42.922Z,2.00
2023-04-01T18:27:10.935Z,1.80
2023-04-01T18:29:47.105Z,1.70
2023-04-01T18:32:15.507Z,2.40
2023-04-01T18:35:40.800Z,1.65
2023-04-01T18:40:54.959Z,5.40
2023-04-01T18:43:57.247Z,5.38
2023-04-01T18:46:47.584Z,8.02
2023-04-01T18:49:21.930Z,11.48
2023-04-01T18:51:58.563Z,26.50
2023-04-01T18:54:51.086Z,13.20
2023-04-01T18:57:21.170Z,12.30
2023-04-01T19:00:04.086Z,69.45
2023-04-01T19:02:44.227Z,51.47
2023-04-01T19:05:19.414Z,6.18
2023-04-01T19:07:48.717Z,39.45
2023-04-01T19:10:40.038Z,27.27
2023-04-01T19:13:23.791Z,27.98
2023-04-01T19:16:13.066Z,14.07
2023-04-01T19:19:00.995Z,56.07
2023-04-01T19:21:48.604Z,16.88
2023-04-01T19:24:53.550Z,7.45
2023-04-01T19:27:39.539Z,11.43
2023-04-01T19:30:44.840Z,11.73
2023-04-01T19:33:49.852Z,35.55
2023-04-01T19:36:27.785Z,33.85
2023-04-01T19:39:23.316Z,16.38
2023-04-01T19:42:31.583Z,16.55
2023-04-01T19:45:09.315Z,8.07
2023-04-01T19:47:53.060Z,6.60
2023-04-01T19:53:05.745Z,8.88
2023-04-01T19:55:47.123Z,4.35
2023-04-01T19:58:43.782Z,3.80
2023-04-01T20:01:20.925Z,8.43
2023-04-01T20:03:55.661Z,26.92
2023-04-01T20:06:28.488Z,55.28
2023-04-01T20:09:27.325Z,73.93
2023-04-01T20:12:11.711Z,44.97
2023-04-01T20:17:16.734Z,15.68
2023-04-01T20:20:07.803Z,11.90
2023-04-01T20:22:44.421Z,12.68
2023-04-01T20:25:12.108Z,13.10
2023-04-01T20:27:47.670Z,21.70
2023-04-01T20:30:37.019Z,38.22
2023-04-01T20:33:27.947Z,34.00
2023-04-01T20:36:15.810Z,21.70
2023-04-01T20:39:02.134Z,9.75
2023-04-01T20:41:56.185Z,5.93
2023-04-01T20:44:45.712Z,5.18
2023-04-01T20:47:36.440Z,6.50
2023-04-01T20:50:25.626Z,11.35
2023-04-01T20:53:14.550Z,7.30
2023-04-01T20:55:48.574Z,18.75
2023-04-01T20:58:29.555Z,12.75
2023-04-01T21:01:46.060Z,14.13
2023-04-01T21:04:25.688Z,16.73
2023-04-01T21:07:03.325Z,21.48
2023-04-01T21:09:37.139Z,21.10
2023-04-01T21:12:49.783Z,15.20
2023-04-01T21:15:40.054Z,19.17
2023-04-01T21:18:33.514Z,15.05
2023-04-01T21:21:27.272Z,15.80
2023-04-01T21:24:29.725Z,13.00
2023-04-01T21:27:22.135Z,11.68
2023-04-01T21:29:58.742Z,12.13
2023-04-01T21:32:46.632Z,10.45
2023-04-01T21:35:46.013Z,9.93
2023-04-01T21:38:24.771Z,12.73
2023-04-01T21:41:22.938Z,7.72
2023-04-01T21:44:08.744Z,7.05
2023-04-01T21:46:39.248Z,6.55
2023-04-01T21:49:34.582Z,4.28
2023-04-01T21:52:37.268Z,5.93
2023-04-01T21:55:29.644Z,2.55
2023-04-01T21:57:57.111Z,2.58
2023-04-01T22:00:33.819Z,2.30
2023-04-01T22:03:38.655Z,2.10
2023-04-01T22:06:09.805Z,2.50
2023-04-01T22:08:59.373Z,2.30
2023-04-01T22:11:39.700Z,2.20
2023-04-01T22:14:18.679Z,2.00
2023-04-01T22:17:04.501Z,2.00
2023-04-01T22:20:12.702Z,2.30
2023-04-01T22:22:58.788Z,1.75
2023-04-01T22:25:52.803Z,1.90
2023-04-01T22:28:49.335Z,1.60
2023-04-01T22:31:24.833Z,1.88
2023-04-01T22:34:15.374Z,2.03
2023-04-01T22:36:45.792Z,2.08
2023-04-01T22:39:42.824Z,2.25
2023-04-01T22:42:31.656Z,1.60
2023-04-01T22:45:14.169Z,1.40
2023-04-01T22:47:58.346Z,1.38
2023-04-01T22:50:35.416Z,1.38
2023-04-01T22:53:28.856Z,1.70
2023-04-01T22:56:01.358Z,1.50
2023-04-01T22:58:36.851Z,1.30
2023-04-01T23:01:13.231Z,1.40
2023-04-01T23:03:43.148Z,1.30
2023-04-01T23:06:20.008Z,1.63
2023-04-01T23:09:03.948Z,1.52
2023-04-01T23:11:49.684Z,1.77
2023-04-01T23:14:24.532Z,2.67
2023-04-01T23:17:26.690Z,1.60
2023-04-01T23:20:09.096Z,1.60
2023-04-01T23:23:20.951Z,1.50
2023-04-01T23:26:31.253Z,1.48
2023-04-01T23:29:02.976Z,2.00
2023-04-01T23:31:41.513Z,1.50
2023-04-01T23:34:14.943Z,1.20
2023-04-01T23:36:48.691Z,1.40
2023-04-01T23:39:33.840Z,1.30
2023-04-01T23:45:21.564Z,1.48
2023-04-01T23:47:52.826Z,1.35
2023-04-01T23:50:24.521Z,1.35
2023-04-01T23:53:01.288Z,1.40
2023-04-01T23:55:33.197Z,1.42
2023-04-01T23:58:27.278Z,1.60
